createdAt,value
2022-08-08T00:02:30.576Z,98.77
2022-08-08T00:04:53.114Z,95.00
2022-08-08T00:07:30.297Z,98.20
2022-08-08T00:10:06.354Z,97.79
2022-08-08T00:12:40.007Z,100.00
2022-08-08T00:15:13.115Z,96.01
2022-08-08T00:18:03.604Z,98.20
2022-08-08T00:20:37.123Z,97.71
2022-08-08T00:23:09.217Z,100.00
2022-08-08T00:25:46.353Z,97.02
2022-08-08T00:28:35.497Z,100.00
2022-08-08T00:32:20.362Z,96.59
2022-08-08T00:34:47.225Z,100.00
2022-08-08T00:37:47.073Z,99.84
2022-08-08T00:41:10.699Z,100.00
2022-08-08T00:43:59.074Z,97.73
2022-08-08T00:46:59.652Z,98.71
2022-08-08T00:50:12.959Z,100.00
2022-08-08T00:52:51.486Z,98.26
2022-08-08T00:55:36.275Z,100.00
2022-08-08T00:59:06.917Z,100.00
2022-08-08T01:01:40.087Z,100.00
2022-08-08T01:05:29.196Z,100.00
2022-08-08T01:08:28.648Z,100.00
2022-08-08T01:11:44.763Z,99.86
2022-08-08T01:15:37.303Z,100.00
2022-08-08T01:18:53.208Z,100.00
2022-08-08T01:22:12.993Z,100.00
2022-08-08T01:25:09.522Z,100.00
2022-08-08T01:28:07.997Z,100.00
2022-08-08T01:32:05.550Z,100.00
2022-08-08T01:34:28.809Z,100.00
2022-08-08T01:37:56.566Z,100.00
2022-08-08T01:40:45.426Z,100.00
2022-08-08T01:43:34.610Z,100.00
2022-08-08T01:46:31.230Z,100.00
2022-08-08T01:49:06.259Z,100.00
2022-08-08T01:52:33.618Z,100.00
2022-08-08T01:55:44.918Z,100.00
2022-08-08T01:58:11.034Z,100.00
2022-08-08T02:00:48.558Z,100.00
2022-08-08T02:03:56.772Z,100.00
2022-08-08T02:06:31.567Z,100.00
2022-08-08T02:09:15.983Z,100.00
2022-08-08T02:11:53.101Z,100.00
2022-08-08T02:14:55.345Z,100.00
2022-08-08T02:17:36.401Z,100.00
2022-08-08T02:20:16.176Z,100.00
2022-08-08T02:23:16.409Z,100.00
2022-08-08T02:25:53.130Z,100.00
2022-08-08T02:28:35.340Z,100.00
2022-08-08T02:31:58.909Z,100.00
2022-08-08T02:34:32.794Z,100.00
2022-08-08T02:37:51.297Z,100.00
2022-08-08T02:40:05.772Z,100.00
2022-08-08T02:44:39.318Z,100.00
2022-08-08T02:46:53.126Z,100.00
2022-08-08T02:50:18.054Z,100.00
2022-08-08T02:53:18.888Z,100.00
2022-08-08T02:56:09.776Z,100.00
2022-08-08T02:59:37.375Z,100.00
2022-08-08T03:02:53.248Z,100.00
2022-08-08T03:06:07.355Z,100.00
2022-08-08T03:09:08.566Z,100.00
2022-08-08T03:12:14.161Z,100.00
2022-08-08T03:15:57.188Z,100.00
2022-08-08T03:17:59.945Z,100.00
2022-08-08T03:20:51.374Z,100.00
2022-08-08T03:23:54.792Z,100.00
2022-08-08T03:26:23.936Z,100.00
2022-08-08T03:28:56.721Z,100.00
2022-08-08T03:32:05.905Z,100.00
2022-08-08T03:34:31.337Z,100.00
2022-08-08T03:37:00.148Z,100.00
2022-08-08T03:39:30.631Z,100.00
2022-08-08T03:42:27.824Z,100.00
2022-08-08T03:44:58.505Z,100.00
2022-08-08T03:47:45.239Z,100.00
2022-08-08T03:50:19.939Z,100.00
2022-08-08T03:52:49.832Z,100.00
2022-08-08T03:55:57.485Z,100.00
2022-08-08T03:58:35.723Z,100.00
2022-08-08T04:01:24.323Z,100.00
2022-08-08T04:03:57.342Z,100.00
2022-08-08T04:06:30.521Z,100.00
2022-08-08T04:09:10.419Z,100.00
2022-08-08T04:11:58.248Z,100.00
2022-08-08T04:14:36.122Z,100.00
2022-08-08T04:17:22.836Z,100.00
2022-08-08T04:19:57.379Z,100.00
2022-08-08T04:22:29.605Z,100.00
2022-08-08T04:24:59.289Z,100.00
2022-08-08T04:28:02.599Z,100.00
2022-08-08T04:30:19.638Z,100.00
2022-08-08T04:32:53.137Z,100.00
2022-08-08T04:35:24.401Z,100.00
2022-08-08T04:37:54.770Z,100.00
2022-08-08T04:40:36.437Z,100.00
2022-08-08T04:43:08.900Z,100.00
2022-08-08T04:45:44.203Z,100.00
2022-08-08T04:48:15.724Z,100.00
2022-08-08T04:50:46.214Z,100.00
2022-08-08T04:54:26.737Z,100.00
2022-08-08T04:56:12.269Z,100.00
2022-08-08T04:58:43.293Z,100.00
2022-08-08T05:01:15.188Z,100.00
2022-08-08T05:04:11.520Z,100.00
2022-08-08T05:06:41.745Z,100.00
2022-08-08T05:09:12.416Z,100.00
2022-08-08T05:11:47.586Z,100.00
2022-08-08T05:14:20.696Z,100.00
2022-08-08T05:17:00.568Z,100.00
2022-08-08T05:20:10.912Z,100.00
2022-08-08T05:22:29.656Z,100.00
2022-08-08T05:25:00.065Z,100.00
2022-08-08T05:27:33.468Z,100.00
2022-08-08T05:30:04.829Z,98.83
2022-08-08T05:32:44.031Z,100.00
2022-08-08T05:35:16.117Z,98.63
2022-08-08T05:37:52.633Z,100.00
2022-08-08T05:40:28.234Z,96.89
2022-08-08T05:43:38.534Z,97.79
2022-08-08T05:46:03.395Z,92.80
2022-08-08T05:48:36.229Z,93.40
2022-08-08T05:51:14.897Z,100.00
2022-08-08T05:54:26.177Z,98.21
2022-08-08T05:56:42.277Z,96.59
2022-08-08T05:59:59.729Z,100.00
2022-08-08T06:02:38.550Z,100.00
2022-08-08T06:05:34.349Z,98.81
2022-08-08T06:08:02.030Z,100.00
2022-08-08T06:10:34.627Z,100.00
2022-08-08T06:13:04.447Z,100.00
2022-08-08T06:15:51.375Z,100.00
2022-08-08T06:18:30.211Z,100.00
2022-08-08T06:21:03.596Z,100.00
2022-08-08T06:24:01.962Z,98.71
2022-08-08T06:26:43.418Z,94.58
2022-08-08T06:29:49.425Z,85.90
2022-08-08T06:32:10.129Z,78.90
2022-08-08T06:35:02.872Z,81.31
2022-08-08T06:37:39.653Z,84.57
2022-08-08T06:40:16.231Z,89.63
2022-08-08T06:42:54.099Z,84.11
2022-08-08T06:45:26.558Z,79.83
2022-08-08T06:48:00.607Z,75.46
2022-08-08T06:50:38.337Z,71.10
2022-08-08T06:53:17.089Z,75.53
2022-08-08T06:56:02.445Z,75.28
2022-08-08T06:58:37.065Z,73.13
2022-08-08T07:01:24.542Z,76.46
2022-08-08T07:04:36.996Z,76.30
2022-08-08T07:06:58.224Z,81.72
2022-08-08T07:09:45.444Z,70.80
2022-08-08T07:12:30.585Z,71.64
2022-08-08T07:15:05.557Z,70.09
2022-08-08T07:18:00.686Z,67.49
2022-08-08T07:20:29.182Z,65.24
2022-08-08T07:23:04.736Z,64.97
2022-08-08T07:25:39.788Z,65.79
2022-08-08T07:28:24.126Z,63.08
2022-08-08T07:31:05.120Z,63.44
2022-08-08T07:33:38.186Z,64.07
2022-08-08T07:36:23.731Z,66.38
2022-08-08T07:38:54.805Z,66.85
2022-08-08T07:41:25.421Z,69.36
2022-08-08T07:43:59.023Z,64.54
2022-08-08T07:46:30.340Z,64.13
2022-08-08T07:49:05.408Z,63.90
2022-08-08T07:51:44.356Z,60.64
2022-08-08T07:54:31.284Z,59.32
2022-08-08T07:57:10.991Z,55.93
2022-08-08T07:59:48.664Z,57.16
2022-08-08T08:02:35.490Z,56.75
2022-08-08T08:05:15.134Z,54.10
2022-08-08T08:07:53.158Z,58.23
2022-08-08T08:10:33.367Z,61.92
2022-08-08T08:13:25.999Z,59.13
2022-08-08T08:16:17.346Z,56.63
2022-08-08T08:18:55.674Z,54.15
2022-08-08T08:21:44.730Z,52.44
2022-08-08T08:24:30.856Z,53.39
2022-08-08T08:27:03.762Z,50.15
2022-08-08T08:29:35.656Z,50.34
2022-08-08T08:32:06.089Z,51.09
2022-08-08T08:34:37.573Z,49.19
2022-08-08T08:37:15.661Z,51.08
2022-08-08T08:40:01.601Z,51.55
2022-08-08T08:42:38.009Z,50.24
2022-08-08T08:45:23.352Z,48.60
2022-08-08T08:48:02.330Z,50.63
2022-08-08T08:50:36.694Z,49.90
2022-08-08T08:53:53.932Z,49.94
2022-08-08T08:56:12.035Z,49.62
2022-08-08T08:58:46.907Z,52.08
2022-08-08T09:01:29.081Z,55.10
2022-08-08T09:04:02.279Z,53.77
2022-08-08T09:06:40.534Z,52.47
2022-08-08T09:09:35.585Z,54.49
2022-08-08T09:12:19.817Z,56.01
2022-08-08T09:14:51.568Z,57.05
2022-08-08T09:17:41.224Z,59.75
2022-08-08T09:21:59.116Z,56.42
2022-08-08T09:23:05.495Z,54.51
2022-08-08T09:25:54.553Z,55.13
2022-08-08T09:28:38.402Z,54.69
2022-08-08T09:31:16.472Z,56.96
2022-08-08T09:34:15.823Z,54.62
2022-08-08T09:37:10.246Z,52.77
2022-08-08T09:39:42.985Z,51.28
2022-08-08T09:42:20.316Z,52.47
2022-08-08T09:45:03.915Z,53.69
2022-08-08T09:48:09.458Z,51.56
2022-08-08T09:50:28.060Z,51.08
2022-08-08T09:53:01.301Z,51.09
2022-08-08T09:56:03.218Z,48.60
2022-08-08T09:58:27.600Z,47.99
2022-08-08T10:01:03.563Z,48.82
2022-08-08T10:03:56.249Z,48.40
2022-08-08T10:06:26.690Z,46.40
2022-08-08T10:08:57.955Z,47.06
2022-08-08T10:12:26.403Z,47.70
2022-08-08T10:14:27.979Z,49.32
2022-08-08T10:17:38.514Z,46.96
2022-08-08T10:19:59.925Z,48.62
2022-08-08T10:22:29.967Z,47.59
2022-08-08T10:25:04.841Z,46.71
2022-08-08T10:27:42.646Z,48.62
2022-08-08T10:30:16.811Z,49.69
2022-08-08T10:33:01.379Z,48.71
2022-08-08T10:36:08.539Z,46.79
2022-08-08T10:38:21.536Z,46.69
2022-08-08T10:40:53.298Z,48.44
2022-08-08T10:43:23.082Z,48.31
2022-08-08T10:45:56.138Z,48.40
2022-08-08T10:48:37.261Z,47.41
2022-08-08T10:51:14.596Z,45.12
2022-08-08T10:53:56.665Z,44.93
2022-08-08T10:56:34.658Z,45.57
2022-08-08T10:59:08.135Z,43.88
2022-08-08T11:01:38.601Z,43.10
2022-08-08T11:04:10.585Z,44.66
2022-08-08T11:06:47.402Z,45.48
2022-08-08T11:09:21.211Z,45.35
2022-08-08T11:12:06.287Z,44.73
2022-08-08T11:14:51.325Z,44.77
2022-08-08T11:17:58.621Z,42.33
2022-08-08T11:20:13.498Z,41.81
2022-08-08T11:22:43.547Z,42.75
2022-08-08T11:25:14.880Z,44.93
2022-08-08T11:27:48.997Z,46.72
2022-08-08T11:30:19.810Z,45.10
2022-08-08T11:32:50.510Z,43.95
2022-08-08T11:35:37.556Z,44.07
2022-08-08T11:38:39.189Z,44.98
2022-08-08T11:41:02.491Z,44.69
2022-08-08T11:43:39.431Z,44.73
2022-08-08T11:46:13.766Z,43.28
2022-08-08T11:48:47.639Z,43.23
2022-08-08T11:51:29.606Z,42.59
2022-08-08T11:54:04.647Z,41.35
2022-08-08T11:56:34.512Z,42.90
2022-08-08T11:59:10.241Z,41.65
2022-08-08T12:01:39.234Z,40.46
2022-08-08T12:04:10.301Z,40.48
2022-08-08T12:06:40.639Z,39.63
2022-08-08T12:09:17.168Z,39.63
2022-08-08T12:11:49.522Z,39.95
2022-08-08T12:14:24.051Z,41.72
2022-08-08T12:16:58.041Z,42.35
2022-08-08T12:19:31.160Z,42.00
2022-08-08T12:22:13.239Z,42.32
2022-08-08T12:24:54.282Z,42.42
2022-08-08T12:27:26.451Z,42.48
2022-08-08T12:29:57.234Z,43.07
2022-08-08T12:32:26.008Z,42.49
2022-08-08T12:35:13.697Z,42.84
2022-08-08T12:38:01.373Z,40.57
2022-08-08T12:40:54.270Z,40.83
2022-08-08T12:43:32.620Z,39.75
2022-08-08T12:46:19.152Z,39.05
2022-08-08T12:49:22.098Z,40.13
2022-08-08T12:51:50.123Z,39.73
2022-08-08T12:54:24.507Z,39.38
2022-08-08T12:56:55.449Z,40.24
2022-08-08T12:59:27.408Z,40.19
2022-08-08T13:02:27.994Z,40.77
2022-08-08T13:04:58.477Z,40.58
2022-08-08T13:08:01.972Z,40.48
2022-08-08T13:10:32.765Z,41.37
2022-08-08T13:13:06.177Z,42.79
2022-08-08T13:15:37.123Z,42.23
2022-08-08T13:18:10.926Z,42.41
2022-08-08T13:20:45.888Z,43.15
2022-08-08T13:23:36.743Z,43.08
2022-08-08T13:26:15.628Z,43.66
2022-08-08T13:28:48.978Z,43.86
2022-08-08T13:31:17.853Z,42.87
2022-08-08T13:33:49.735Z,42.79
2022-08-08T13:36:26.204Z,42.99
2022-08-08T13:38:59.347Z,42.26
2022-08-08T13:41:39.614Z,43.29
2022-08-08T13:44:19.525Z,43.62
2022-08-08T13:46:55.803Z,42.60
2022-08-08T13:50:35.591Z,43.09
2022-08-08T13:52:14.180Z,43.31
2022-08-08T13:55:04.447Z,43.10
2022-08-08T13:57:46.369Z,42.60
2022-08-08T14:00:25.154Z,43.15
2022-08-08T14:02:59.292Z,42.12
2022-08-08T14:05:29.022Z,42.15
2022-08-08T14:08:16.897Z,43.04
2022-08-08T14:10:56.239Z,43.60
2022-08-08T14:13:33.590Z,44.58
2022-08-08T14:16:07.759Z,44.14
2022-08-08T14:18:53.965Z,44.46
2022-08-08T14:21:24.717Z,44.03
2022-08-08T14:24:06.679Z,43.57
2022-08-08T14:26:41.696Z,44.02
2022-08-08T14:29:28.849Z,44.09
2022-08-08T14:32:10.937Z,44.00
2022-08-08T14:34:42.766Z,43.77
2022-08-08T14:37:13.001Z,44.17
2022-08-08T14:39:49.490Z,45.25
2022-08-08T14:42:26.972Z,46.70
2022-08-08T14:44:57.970Z,45.66
2022-08-08T14:47:36.207Z,45.87
2022-08-08T14:50:14.038Z,47.01
2022-08-08T14:52:54.137Z,40.53
2022-08-08T14:55:35.187Z,38.65
2022-08-08T14:58:11.803Z,37.44
2022-08-08T15:00:44.847Z,36.37
2022-08-08T15:03:17.104Z,35.96
2022-08-08T15:05:53.937Z,36.49
2022-08-08T15:08:34.880Z,36.13
2022-08-08T15:11:09.444Z,36.44
2022-08-08T15:14:01.920Z,36.19
2022-08-08T15:16:34.490Z,36.74
2022-08-08T15:19:05.431Z,36.66
2022-08-08T15:21:42.450Z,36.59
2022-08-08T15:24:12.834Z,35.69
2022-08-08T15:26:46.822Z,35.14
2022-08-08T15:29:22.339Z,35.81
2022-08-08T15:32:03.599Z,36.82
2022-08-08T15:34:42.256Z,36.44
2022-08-08T15:37:12.882Z,36.17
2022-08-08T15:39:41.611Z,36.12
2022-08-08T15:42:17.857Z,36.50
2022-08-08T15:44:59.051Z,37.00
2022-08-08T15:47:27.250Z,37.56
2022-08-08T15:49:57.024Z,37.46
2022-08-08T15:52:25.334Z,38.97
2022-08-08T15:54:54.012Z,38.28
2022-08-08T15:57:23.210Z,37.86
2022-08-08T16:00:06.807Z,38.63
2022-08-08T16:02:50.191Z,38.77
2022-08-08T16:05:23.746Z,38.63
2022-08-08T16:07:54.229Z,39.01
2022-08-08T16:13:03.740Z,40.11
2022-08-08T16:13:43.262Z,39.72
2022-08-08T16:16:09.068Z,39.08
2022-08-08T16:18:41.132Z,39.68
2022-08-08T16:21:26.198Z,39.66
2022-08-08T16:23:55.520Z,39.94
2022-08-08T16:26:34.391Z,40.07
2022-08-08T16:29:09.515Z,40.14
2022-08-08T16:31:48.608Z,41.58
2022-08-08T16:34:20.015Z,41.27
2022-08-08T16:36:50.958Z,40.52
2022-08-08T16:40:00.759Z,40.46
2022-08-08T16:42:17.878Z,40.62
2022-08-08T16:44:54.678Z,41.15
2022-08-08T16:47:40.410Z,40.61
2022-08-08T16:50:14.025Z,41.37
2022-08-08T16:55:04.699Z,40.99
2022-08-08T16:55:53.670Z,40.94
2022-08-08T16:58:25.380Z,40.65
2022-08-08T17:00:57.895Z,40.57
2022-08-08T17:03:58.000Z,40.87
2022-08-08T17:06:35.657Z,40.64
2022-08-08T17:09:05.348Z,39.88
2022-08-08T17:11:39.163Z,39.27
2022-08-08T17:14:19.312Z,39.19
2022-08-08T17:16:51.738Z,39.78
2022-08-08T17:19:27.345Z,40.46
2022-08-08T17:21:55.783Z,40.61
2022-08-08T17:24:27.971Z,41.40
2022-08-08T17:26:59.380Z,41.83
2022-08-08T17:29:27.999Z,43.44
2022-08-08T17:31:57.459Z,42.45
2022-08-08T17:34:36.902Z,42.88
2022-08-08T17:37:14.751Z,42.89
2022-08-08T17:40:04.568Z,42.89
2022-08-08T17:42:32.709Z,43.97
2022-08-08T17:45:01.415Z,43.50
2022-08-08T17:47:40.490Z,43.22
2022-08-08T17:50:10.942Z,43.35
2022-08-08T17:52:43.378Z,43.23
2022-08-08T17:56:05.736Z,43.07
2022-08-08T17:58:05.600Z,43.56
2022-08-08T18:00:39.102Z,44.25
2022-08-08T18:03:13.316Z,44.03
2022-08-08T18:05:48.012Z,49.88
2022-08-08T18:08:37.551Z,49.04
2022-08-08T18:11:15.135Z,49.88
2022-08-08T18:13:46.044Z,51.23
2022-08-08T18:16:20.322Z,52.12
2022-08-08T18:18:52.670Z,54.51
2022-08-08T18:21:24.874Z,54.61
2022-08-08T18:24:03.830Z,56.04
2022-08-08T18:26:34.683Z,55.25
2022-08-08T18:29:03.085Z,53.86
2022-08-08T18:31:34.238Z,54.36
2022-08-08T18:34:25.220Z,54.35
2022-08-08T18:36:55.738Z,54.96
2022-08-08T18:39:28.188Z,51.74
2022-08-08T18:42:03.363Z,52.51
2022-08-08T18:44:35.875Z,50.62
2022-08-08T18:47:05.509Z,51.98
2022-08-08T18:49:40.891Z,52.55
2022-08-08T18:52:23.833Z,51.82
2022-08-08T18:55:00.883Z,51.53
2022-08-08T18:57:43.333Z,51.94
2022-08-08T19:00:16.692Z,50.87
2022-08-08T19:02:55.592Z,49.38
2022-08-08T19:05:32.144Z,49.08
2022-08-08T19:08:25.714Z,49.37
2022-08-08T19:10:58.396Z,48.97
2022-08-08T19:13:53.048Z,49.02
2022-08-08T19:16:19.246Z,48.32
2022-08-08T19:18:53.139Z,48.56
2022-08-08T19:21:30.655Z,48.83
2022-08-08T19:24:05.845Z,47.90
2022-08-08T19:26:35.656Z,49.34
2022-08-08T19:29:07.975Z,49.66
2022-08-08T19:31:36.679Z,49.48
2022-08-08T19:34:35.676Z,49.25
2022-08-08T19:36:55.355Z,50.13
2022-08-08T19:39:26.708Z,48.69
2022-08-08T19:42:03.726Z,48.83
2022-08-08T19:44:45.494Z,48.84
2022-08-08T19:47:15.772Z,47.65
2022-08-08T19:49:59.880Z,47.77
2022-08-08T19:52:35.418Z,47.79
2022-08-08T19:55:11.287Z,46.60
2022-08-08T19:57:41.213Z,46.68
2022-08-08T20:00:30.476Z,48.65
2022-08-08T20:03:01.883Z,48.23
2022-08-08T20:06:15.656Z,48.41
2022-08-08T20:08:32.444Z,49.14
2022-08-08T20:11:01.272Z,48.17
2022-08-08T20:14:32.760Z,48.66
2022-08-08T20:16:20.492Z,49.41
2022-08-08T20:18:52.467Z,49.55
2022-08-08T20:21:23.078Z,49.05
2022-08-08T20:23:57.616Z,49.20
2022-08-08T20:26:30.109Z,48.92
2022-08-08T20:29:02.159Z,49.08
2022-08-08T20:31:47.215Z,49.74
2022-08-08T20:34:28.795Z,49.50
2022-08-08T20:37:00.472Z,49.42
2022-08-08T20:39:39.412Z,51.05
2022-08-08T20:42:17.912Z,52.79
2022-08-08T20:44:48.724Z,53.59
2022-08-08T20:47:23.567Z,52.25
2022-08-08T20:49:54.373Z,53.86
2022-08-08T20:52:26.003Z,52.95
2022-08-08T20:54:54.422Z,53.91
2022-08-08T20:57:22.761Z,56.31
2022-08-08T20:59:56.017Z,57.87
2022-08-08T21:02:27.021Z,58.78
2022-08-08T21:05:01.102Z,60.77
2022-08-08T21:07:47.069Z,61.08
2022-08-08T21:10:20.998Z,57.64
2022-08-08T21:12:52.881Z,61.87
2022-08-08T21:16:04.797Z,60.50
2022-08-08T21:18:14.081Z,58.54
2022-08-08T21:20:42.999Z,65.43
2022-08-08T21:23:19.486Z,67.75
2022-08-08T21:25:55.045Z,66.23
2022-08-08T21:28:36.036Z,65.49
2022-08-08T21:31:21.673Z,68.39
2022-08-08T21:33:53.271Z,67.97
2022-08-08T21:36:28.578Z,66.39
2022-08-08T21:38:57.966Z,68.66
2022-08-08T21:41:38.392Z,70.56
2022-08-08T21:44:15.284Z,71.35
2022-08-08T21:48:05.837Z,74.37
2022-08-08T21:49:35.410Z,72.66
2022-08-08T21:54:36.673Z,69.59
2022-08-08T21:55:02.779Z,75.85
2022-08-08T21:57:42.747Z,74.29
2022-08-08T22:00:14.183Z,70.15
2022-08-08T22:02:44.181Z,74.54
2022-08-08T22:05:15.199Z,70.75
2022-08-08T22:07:47.437Z,76.81
2022-08-08T22:10:18.622Z,75.92
2022-08-08T22:13:17.182Z,75.77
2022-08-08T22:15:58.931Z,82.42
2022-08-08T22:18:29.870Z,81.16
2022-08-08T22:21:01.501Z,83.07
2022-08-08T22:23:41.127Z,79.60
2022-08-08T22:26:29.797Z,88.75
2022-08-08T22:29:13.589Z,89.89
2022-08-08T22:32:01.476Z,84.70
2022-08-08T22:34:32.755Z,80.25
2022-08-08T22:37:03.269Z,86.67
2022-08-08T22:39:39.611Z,83.18
2022-08-08T22:42:23.959Z,97.12
2022-08-08T22:44:56.533Z,92.05
2022-08-08T22:47:34.002Z,93.91
2022-08-08T22:50:09.711Z,92.37
2022-08-08T22:54:28.094Z,97.91
2022-08-08T22:55:58.934Z,98.21
2022-08-08T22:58:30.881Z,95.04
2022-08-08T23:01:00.663Z,94.49
2022-08-08T23:03:36.546Z,92.26
2022-08-08T23:06:17.743Z,83.60
2022-08-08T23:08:55.835Z,89.11
2022-08-08T23:11:30.766Z,95.31
2022-08-08T23:14:17.854Z,92.38
2022-08-08T23:16:57.551Z,96.02
2022-08-08T23:19:30.929Z,90.47
2022-08-08T23:22:04.710Z,87.59
2022-08-08T23:24:36.909Z,85.87
2022-08-08T23:27:10.653Z,89.13
2022-08-08T23:29:39.781Z,87.39
2022-08-08T23:32:10.989Z,86.38
2022-08-08T23:34:40.232Z,87.82
2022-08-08T23:37:26.582Z,88.94
2022-08-08T23:40:16.906Z,94.13
2022-08-08T23:42:51.357Z,91.12
2022-08-08T23:49:03.337Z,100.00
2022-08-08T23:49:05.807Z,95.14
2022-08-08T23:50:57.692Z,100.00
2022-08-08T23:53:55.961Z,100.00
2022-08-08T23:56:24.164Z,100.00
2022-08-08T23:59:00.881Z,100.00
